createdAt,value
2023-05-17T00:00:27.413Z,85.34
2023-05-17T00:01:27.444Z,85.34
2023-05-17T00:02:27.541Z,85.24
2023-05-17T00:03:27.331Z,85.14
2023-05-17T00:04:27.372Z,85.24
2023-05-17T00:05:27.544Z,85.34
2023-05-17T00:06:27.335Z,85.24
2023-05-17T00:07:27.328Z,84.93
2023-05-17T00:08:27.407Z,84.93
2023-05-17T00:09:27.251Z,85.44
2023-05-17T00:10:27.255Z,85.44
2023-05-17T00:11:27.327Z,85.69
2023-05-17T00:12:27.215Z,85.28
2023-05-17T00:13:27.363Z,85.28
2023-05-17T00:14:27.249Z,85.79
2023-05-17T00:15:27.357Z,86.00
2023-05-17T00:16:27.184Z,86.10
2023-05-17T00:17:27.252Z,85.89
2023-05-17T00:18:27.322Z,86.41
2023-05-17T00:19:27.223Z,86.31
2023-05-17T00:20:27.193Z,86.61
2023-05-17T00:21:27.170Z,86.72
2023-05-17T00:22:27.157Z,86.61
2023-05-17T00:23:27.246Z,86.72
2023-05-17T00:24:27.231Z,86.82
2023-05-17T00:25:27.271Z,87.13
2023-05-17T00:26:27.116Z,86.93
2023-05-17T00:27:27.117Z,86.93
2023-05-17T00:28:27.024Z,86.93
2023-05-17T00:29:27.100Z,86.93
2023-05-17T00:30:27.096Z,86.72
2023-05-17T00:31:27.120Z,86.82
2023-05-17T00:32:27.090Z,86.82
2023-05-17T00:33:27.064Z,86.61
2023-05-17T00:34:27.115Z,86.52
2023-05-17T00:35:27.397Z,86.41
2023-05-17T00:36:27.052Z,86.52
2023-05-17T00:37:26.986Z,86.52
2023-05-17T00:38:27.006Z,86.93
2023-05-17T00:39:27.002Z,86.72
2023-05-17T00:40:27.013Z,86.72
2023-05-17T00:41:26.937Z,86.72
2023-05-17T00:42:26.936Z,86.31
2023-05-17T00:43:26.947Z,86.61
2023-05-17T00:44:26.932Z,86.55
2023-05-17T00:45:27.333Z,86.76
2023-05-17T00:46:26.867Z,86.87
2023-05-17T00:47:26.933Z,87.07
2023-05-17T00:48:26.976Z,87.27
2023-05-17T00:49:26.687Z,87.48
2023-05-17T00:50:26.837Z,87.59
2023-05-17T00:51:26.904Z,87.69
2023-05-17T00:52:26.957Z,87.59
2023-05-17T00:53:26.838Z,87.79
2023-05-17T00:54:26.820Z,87.99
2023-05-17T00:55:26.949Z,88.14
2023-05-17T00:56:26.861Z,88.35
2023-05-17T00:57:26.757Z,88.14
2023-05-17T00:58:26.730Z,88.35
2023-05-17T00:59:26.813Z,88.76
2023-05-17T01:00:26.760Z,88.76
2023-05-17T01:01:26.780Z,89.07
2023-05-17T01:02:26.793Z,89.07
2023-05-17T01:03:26.837Z,89.48
2023-05-17T01:04:26.809Z,89.69
2023-05-17T01:05:26.899Z,89.54
2023-05-17T01:06:26.756Z,89.23
2023-05-17T01:07:26.689Z,89.34
2023-05-17T01:08:26.714Z,89.54
2023-05-17T01:09:26.528Z,89.85
2023-05-17T01:10:26.654Z,89.65
2023-05-17T01:11:26.657Z,89.95
2023-05-17T01:12:26.667Z,89.85
2023-05-17T01:13:26.620Z,89.71
2023-05-17T01:14:26.638Z,89.50
2023-05-17T01:15:26.692Z,89.40
2023-05-17T01:16:26.618Z,89.61
2023-05-17T01:17:26.787Z,89.50
2023-05-17T01:18:26.639Z,88.99
2023-05-17T01:19:26.540Z,89.40
2023-05-17T01:20:26.632Z,89.50
2023-05-17T01:21:26.495Z,89.19
2023-05-17T01:22:26.626Z,88.99
2023-05-17T01:23:26.636Z,88.99
2023-05-17T01:24:26.362Z,88.74
2023-05-17T01:25:26.615Z,89.05
2023-05-17T01:26:26.486Z,88.95
2023-05-17T01:27:26.513Z,88.95
2023-05-17T01:28:26.535Z,88.84
2023-05-17T01:29:26.460Z,88.53
2023-05-17T01:30:26.563Z,88.53
2023-05-17T01:31:26.471Z,88.53
2023-05-17T01:32:26.489Z,88.43
2023-05-17T01:33:26.591Z,88.43
2023-05-17T01:34:26.588Z,88.23
2023-05-17T01:35:26.916Z,88.23
2023-05-17T01:36:26.401Z,88.02
2023-05-17T01:37:26.393Z,87.98
2023-05-17T01:38:26.452Z,87.98
2023-05-17T01:39:26.362Z,88.08
2023-05-17T01:40:26.431Z,87.87
2023-05-17T01:41:26.373Z,87.67
2023-05-17T01:42:26.306Z,87.87
2023-05-17T01:43:26.319Z,87.77
2023-05-17T01:44:26.199Z,87.77
2023-05-17T01:45:26.426Z,87.57
2023-05-17T01:46:26.390Z,87.77
2023-05-17T01:47:26.252Z,87.67
2023-05-17T01:48:26.288Z,87.26
2023-05-17T01:49:26.265Z,87.67
2023-05-17T01:50:26.193Z,87.57
2023-05-17T01:51:26.191Z,87.57
2023-05-17T01:52:26.221Z,87.05
2023-05-17T01:53:26.289Z,87.46
2023-05-17T01:54:26.311Z,87.57
2023-05-17T01:55:26.391Z,87.26
2023-05-17T01:56:26.212Z,87.36
2023-05-17T01:57:26.121Z,87.77
2023-05-17T01:58:26.133Z,87.77
2023-05-17T01:59:26.103Z,87.81
2023-05-17T02:00:26.251Z,88.02
2023-05-17T02:01:26.170Z,87.81
2023-05-17T02:02:26.151Z,87.81
2023-05-17T02:03:26.120Z,88.02
2023-05-17T02:04:26.101Z,88.12
2023-05-17T02:05:26.238Z,88.33
2023-05-17T02:06:26.129Z,88.02
2023-05-17T02:07:26.052Z,88.26
2023-05-17T02:08:26.166Z,88.23
2023-05-17T02:09:26.076Z,88.47
2023-05-17T02:10:26.059Z,88.57
2023-05-17T02:11:26.059Z,88.78
2023-05-17T02:12:26.068Z,88.78
2023-05-17T02:13:25.833Z,88.99
2023-05-17T02:14:26.014Z,88.78
2023-05-17T02:15:26.111Z,88.89
2023-05-17T02:16:26.074Z,89.09
2023-05-17T02:17:25.869Z,89.05
2023-05-17T02:18:26.045Z,89.05
2023-05-17T02:19:25.921Z,89.19
2023-05-17T02:20:25.915Z,89.15
2023-05-17T02:21:26.020Z,88.95
2023-05-17T02:22:25.875Z,89.15
2023-05-17T02:23:25.943Z,89.15
2023-05-17T02:24:25.928Z,89.15
2023-05-17T02:25:25.958Z,88.43
2023-05-17T02:26:25.767Z,88.95
2023-05-17T02:27:25.836Z,89.25
2023-05-17T02:28:25.928Z,89.25
2023-05-17T02:29:25.930Z,88.84
2023-05-17T02:30:25.841Z,89.05
2023-05-17T02:31:25.836Z,89.05
2023-05-17T02:32:25.685Z,89.05
2023-05-17T02:33:25.915Z,88.84
2023-05-17T02:34:25.874Z,89.11
2023-05-17T02:35:25.752Z,89.11
2023-05-17T02:36:25.773Z,88.90
2023-05-17T02:37:25.787Z,88.70
2023-05-17T02:38:25.789Z,88.80
2023-05-17T02:39:25.860Z,88.90
2023-05-17T02:40:25.807Z,88.80
2023-05-17T02:41:25.741Z,88.90
2023-05-17T02:42:25.826Z,88.80
2023-05-17T02:43:25.769Z,88.70
2023-05-17T02:44:25.503Z,88.80
2023-05-17T02:45:25.922Z,89.01
2023-05-17T02:46:25.795Z,88.90
2023-05-17T02:47:25.693Z,88.90
2023-05-17T02:48:25.694Z,88.90
2023-05-17T02:49:25.536Z,88.90
2023-05-17T02:50:25.757Z,89.11
2023-05-17T02:51:25.481Z,89.31
2023-05-17T02:52:25.478Z,88.80
2023-05-17T02:53:25.554Z,89.01
2023-05-17T02:54:25.425Z,88.80
2023-05-17T02:55:25.665Z,89.01
2023-05-17T02:56:25.525Z,89.11
2023-05-17T02:57:25.511Z,89.31
2023-05-17T02:58:25.473Z,89.31
2023-05-17T02:59:25.442Z,89.01
2023-05-17T03:00:25.376Z,89.01
2023-05-17T03:01:25.543Z,89.01
2023-05-17T03:02:25.525Z,89.01
2023-05-17T03:03:25.455Z,89.22
2023-05-17T03:04:25.305Z,89.42
2023-05-17T03:05:25.352Z,89.62
2023-05-17T03:06:25.555Z,89.42
2023-05-17T03:07:25.480Z,89.52
2023-05-17T03:08:25.394Z,89.42
2023-05-17T03:09:25.370Z,89.87
2023-05-17T03:10:25.379Z,89.83
2023-05-17T03:11:25.383Z,89.67
2023-05-17T03:12:26.893Z,89.67
2023-05-17T03:13:25.402Z,89.73
2023-05-17T03:14:25.317Z,89.73
2023-05-17T03:15:25.306Z,89.56
2023-05-17T03:16:25.149Z,89.87
2023-05-17T03:17:25.336Z,89.46
2023-05-17T03:18:25.309Z,89.67
2023-05-17T03:19:25.316Z,89.87
2023-05-17T03:20:25.140Z,89.67
2023-05-17T03:21:25.130Z,89.87
2023-05-17T03:22:25.264Z,89.67
2023-05-17T03:23:25.332Z,89.77
2023-05-17T03:24:25.245Z,90.18
2023-05-17T03:25:25.107Z,90.18
2023-05-17T03:26:25.021Z,89.87
2023-05-17T03:27:25.049Z,90.08
2023-05-17T03:28:25.081Z,89.97
2023-05-17T03:29:25.224Z,89.97
2023-05-17T03:30:25.164Z,90.28
2023-05-17T03:31:25.093Z,90.24
2023-05-17T03:32:25.195Z,90.03
2023-05-17T03:33:25.038Z,90.18
2023-05-17T03:34:24.976Z,89.77
2023-05-17T03:35:24.969Z,89.87
2023-05-17T03:36:25.150Z,90.03
2023-05-17T03:37:25.014Z,89.97
2023-05-17T03:38:25.171Z,90.28
2023-05-17T03:39:25.108Z,90.18
2023-05-17T03:40:24.947Z,90.18
2023-05-17T03:41:25.035Z,90.39
2023-05-17T03:42:25.029Z,90.39
2023-05-17T03:43:25.037Z,90.28
2023-05-17T03:44:25.037Z,90.18
2023-05-17T03:45:24.897Z,90.28
2023-05-17T03:46:24.995Z,90.18
2023-05-17T03:47:24.913Z,90.39
2023-05-17T03:48:24.847Z,90.28
2023-05-17T03:49:24.880Z,90.39
2023-05-17T03:50:24.792Z,90.59
2023-05-17T03:51:24.928Z,90.59
2023-05-17T03:52:24.745Z,90.69
2023-05-17T03:53:24.800Z,90.80
2023-05-17T03:54:24.943Z,90.80
2023-05-17T03:55:24.820Z,91.05
2023-05-17T03:56:24.935Z,90.94
2023-05-17T03:57:24.901Z,91.15
2023-05-17T03:58:24.958Z,91.05
2023-05-17T03:59:24.712Z,91.25
2023-05-17T04:00:24.853Z,91.36
2023-05-17T04:01:24.718Z,91.56
2023-05-17T04:02:24.844Z,91.77
2023-05-17T04:03:24.650Z,91.87
2023-05-17T04:04:24.946Z,91.97
2023-05-17T04:05:25.068Z,91.97
2023-05-17T04:06:24.765Z,92.03
2023-05-17T04:07:24.817Z,92.14
2023-05-17T04:08:24.729Z,91.93
2023-05-17T04:09:24.802Z,91.93
2023-05-17T04:10:25.561Z,91.52
2023-05-17T04:11:24.806Z,91.52
2023-05-17T04:12:24.746Z,91.31
2023-05-17T04:13:24.688Z,91.52
2023-05-17T04:14:24.709Z,90.96
2023-05-17T04:15:24.641Z,91.17
2023-05-17T04:16:24.721Z,91.27
2023-05-17T04:17:24.746Z,91.27
2023-05-17T04:18:24.579Z,90.96
2023-05-17T04:19:24.730Z,90.86
2023-05-17T04:20:24.743Z,90.45
2023-05-17T04:21:24.585Z,90.45
2023-05-17T04:22:24.609Z,90.14
2023-05-17T04:23:24.621Z,90.24
2023-05-17T04:24:24.677Z,90.34
2023-05-17T04:25:24.592Z,90.14
2023-05-17T04:26:24.595Z,90.03
2023-05-17T04:27:24.610Z,90.24
2023-05-17T04:28:24.547Z,90.24
2023-05-17T04:29:24.512Z,90.09
2023-05-17T04:30:24.497Z,89.89
2023-05-17T04:31:24.406Z,89.89
2023-05-17T04:32:24.401Z,89.69
2023-05-17T04:33:24.504Z,89.28
2023-05-17T04:34:24.556Z,88.86
2023-05-17T04:35:24.361Z,88.62
2023-05-17T04:36:24.462Z,88.31
2023-05-17T04:37:24.535Z,88.31
2023-05-17T04:38:24.497Z,88.56
2023-05-17T04:39:24.383Z,88.35
2023-05-17T04:40:24.469Z,88.35
2023-05-17T04:41:24.466Z,88.66
2023-05-17T04:42:24.403Z,88.66
2023-05-17T04:43:24.416Z,88.76
2023-05-17T04:44:24.451Z,88.56
2023-05-17T04:45:24.468Z,88.96
2023-05-17T04:46:24.383Z,89.07
2023-05-17T04:47:24.406Z,89.28
2023-05-17T04:48:24.462Z,89.28
2023-05-17T04:49:24.202Z,88.76
2023-05-17T04:50:24.269Z,88.92
2023-05-17T04:51:24.250Z,88.51
2023-05-17T04:52:24.116Z,88.31
2023-05-17T04:53:24.301Z,88.31
2023-05-17T04:54:24.232Z,87.90
2023-05-17T04:55:24.167Z,88.20
2023-05-17T04:56:24.141Z,88.41
2023-05-17T04:57:24.221Z,88.31
2023-05-17T04:58:24.072Z,88.41
2023-05-17T04:59:24.120Z,88.51
2023-05-17T05:00:24.090Z,88.92
2023-05-17T05:01:24.180Z,89.13
2023-05-17T05:02:24.234Z,89.23
2023-05-17T05:03:24.098Z,89.03
2023-05-17T05:04:24.108Z,89.23
2023-05-17T05:05:24.117Z,89.23
2023-05-17T05:06:24.077Z,88.82
2023-05-17T05:07:24.167Z,88.68
2023-05-17T05:08:24.154Z,88.06
2023-05-17T05:09:24.330Z,88.17
2023-05-17T05:10:24.036Z,87.55
2023-05-17T05:11:23.933Z,87.45
2023-05-17T05:12:24.045Z,87.30
2023-05-17T05:13:24.038Z,87.51
2023-05-17T05:14:24.019Z,87.10
2023-05-17T05:15:23.902Z,86.54
2023-05-17T05:16:23.997Z,86.09
2023-05-17T05:17:24.188Z,84.27
2023-05-17T05:18:24.229Z,81.84
2023-05-17T05:19:23.994Z,80.02
2023-05-17T05:20:25.870Z,79.30
2023-05-17T05:21:23.989Z,78.69
2023-05-17T05:22:23.956Z,79.20
2023-05-17T05:23:24.023Z,79.50
2023-05-17T05:24:23.940Z,79.64
2023-05-17T05:25:24.025Z,79.30
2023-05-17T05:26:23.944Z,78.49
2023-05-17T05:27:23.940Z,78.59
2023-05-17T05:28:23.870Z,77.97
2023-05-17T05:29:23.937Z,78.17
2023-05-17T05:30:23.746Z,78.59
2023-05-17T05:31:23.736Z,78.69
2023-05-17T05:32:23.772Z,78.89
2023-05-17T05:33:23.833Z,79.00
2023-05-17T05:34:23.733Z,79.00
2023-05-17T05:35:23.689Z,78.49
2023-05-17T05:36:23.681Z,78.72
2023-05-17T05:37:23.757Z,79.24
2023-05-17T05:38:23.651Z,79.89
2023-05-17T05:39:23.787Z,80.09
2023-05-17T05:40:23.667Z,80.30
2023-05-17T05:41:23.754Z,79.99
2023-05-17T05:42:23.728Z,80.44
2023-05-17T05:43:23.586Z,80.64
2023-05-17T05:44:25.795Z,80.54
2023-05-17T05:45:23.565Z,80.64
2023-05-17T05:46:23.608Z,80.54
2023-05-17T05:47:23.775Z,80.64
2023-05-17T05:48:23.848Z,80.85
2023-05-17T05:49:23.791Z,80.85
2023-05-17T05:50:23.525Z,80.64
2023-05-17T05:51:23.897Z,80.37
2023-05-17T05:52:23.748Z,80.58
2023-05-17T05:53:23.476Z,80.47
2023-05-17T05:54:23.698Z,80.33
2023-05-17T05:55:23.671Z,80.54
2023-05-17T05:56:23.658Z,80.47
2023-05-17T05:57:23.545Z,80.54
2023-05-17T05:58:23.473Z,80.13
2023-05-17T05:59:23.414Z,79.93
2023-05-17T06:00:23.665Z,79.31
2023-05-17T06:01:23.426Z,79.07
2023-05-17T06:02:23.462Z,78.97
2023-05-17T06:03:23.441Z,78.35
2023-05-17T06:04:29.982Z,78.35
2023-05-17T06:05:23.459Z,78.56
2023-05-17T06:06:23.562Z,78.86
2023-05-17T06:07:23.398Z,79.11
2023-05-17T06:08:23.363Z,79.21
2023-05-17T06:09:23.318Z,79.52
2023-05-17T06:10:23.377Z,79.93
2023-05-17T06:11:23.470Z,79.41
2023-05-17T06:12:23.316Z,79.24
2023-05-17T06:13:23.318Z,79.04
2023-05-17T06:14:23.279Z,79.14
2023-05-17T06:15:23.274Z,79.14
2023-05-17T06:16:23.247Z,79.55
2023-05-17T06:17:23.267Z,79.14
2023-05-17T06:18:23.481Z,78.94
2023-05-17T06:19:24.227Z,78.94
2023-05-17T06:20:23.365Z,79.14
2023-05-17T06:21:23.237Z,79.21
2023-05-17T06:22:23.206Z,78.59
2023-05-17T06:23:23.231Z,77.77
2023-05-17T06:24:23.287Z,77.26
2023-05-17T06:25:23.183Z,76.81
2023-05-17T06:26:23.961Z,76.81
2023-05-17T06:27:23.262Z,75.21
2023-05-17T06:28:23.179Z,74.60
2023-05-17T06:29:23.195Z,75.11
2023-05-17T06:30:23.107Z,74.43
2023-05-17T06:31:23.123Z,74.39
2023-05-17T06:32:23.111Z,74.73
2023-05-17T06:33:23.165Z,75.04
2023-05-17T06:34:23.098Z,74.94
2023-05-17T06:35:23.092Z,74.94
2023-05-17T06:36:23.487Z,74.84
2023-05-17T06:37:23.057Z,75.18
2023-05-17T06:38:23.057Z,75.18
2023-05-17T06:39:23.005Z,75.18
2023-05-17T06:40:23.067Z,74.77
2023-05-17T06:41:22.982Z,74.77
2023-05-17T06:42:23.006Z,74.87
2023-05-17T06:43:22.994Z,75.18
2023-05-17T06:44:22.994Z,75.21
2023-05-17T06:45:22.948Z,75.38
2023-05-17T06:46:22.986Z,76.10
2023-05-17T06:47:23.001Z,76.00
2023-05-17T06:48:23.122Z,76.00
2023-05-17T06:49:22.932Z,75.45
2023-05-17T06:50:22.934Z,75.24
2023-05-17T06:51:22.943Z,75.01
2023-05-17T06:52:22.903Z,74.87
2023-05-17T06:53:22.889Z,73.64
2023-05-17T06:54:22.975Z,72.45
2023-05-17T06:55:22.917Z,71.15
2023-05-17T06:56:22.880Z,69.18
2023-05-17T06:57:22.837Z,67.68
2023-05-17T06:58:22.820Z,63.04
2023-05-17T06:59:22.821Z,60.52
2023-05-17T07:00:22.821Z,57.10
2023-05-17T07:01:22.794Z,56.85
2023-05-17T07:02:22.853Z,57.52
2023-05-17T07:03:22.830Z,57.85
2023-05-17T07:04:22.952Z,58.23
2023-05-17T07:05:22.899Z,57.54
2023-05-17T07:06:22.722Z,56.07
2023-05-17T07:07:22.748Z,55.48
2023-05-17T07:08:22.709Z,55.38
2023-05-17T07:09:22.716Z,53.55
2023-05-17T07:10:22.697Z,52.46
2023-05-17T07:11:22.703Z,51.09
2023-05-17T07:12:22.702Z,51.64
2023-05-17T07:13:22.658Z,51.95
2023-05-17T07:14:22.864Z,52.58
2023-05-17T07:15:22.654Z,51.87
2023-05-17T07:16:22.669Z,48.63
2023-05-17T07:17:22.608Z,48.33
2023-05-17T07:18:22.762Z,48.94
2023-05-17T07:19:22.741Z,48.54
2023-05-17T07:20:22.622Z,47.38
2023-05-17T07:21:22.615Z,47.38
2023-05-17T07:22:22.588Z,47.39
2023-05-17T07:23:22.589Z,48.13
2023-05-17T07:24:22.583Z,48.86
2023-05-17T07:25:22.577Z,48.05
2023-05-17T07:26:22.536Z,48.05
2023-05-17T07:27:22.534Z,48.07
2023-05-17T07:28:22.574Z,50.04
2023-05-17T07:29:22.508Z,49.31
2023-05-17T07:30:22.518Z,47.77
2023-05-17T07:31:22.483Z,47.97
2023-05-17T07:32:22.516Z,47.82
2023-05-17T07:33:22.457Z,46.91
2023-05-17T07:34:22.604Z,46.59
2023-05-17T07:35:22.455Z,45.94
2023-05-17T07:36:22.600Z,46.95
2023-05-17T07:37:22.428Z,46.20
2023-05-17T07:38:22.416Z,44.92
2023-05-17T07:39:22.393Z,43.85
2023-05-17T07:40:22.446Z,43.28
2023-05-17T07:41:22.399Z,40.83
2023-05-17T07:42:22.378Z,40.41
2023-05-17T07:43:22.552Z,39.18
2023-05-17T07:44:22.405Z,38.68
2023-05-17T07:45:23.060Z,39.25
2023-05-17T07:46:22.537Z,39.90
2023-05-17T07:47:22.364Z,40.06
2023-05-17T07:48:22.436Z,39.22
2023-05-17T07:49:22.481Z,38.28
2023-05-17T07:50:22.338Z,38.43
2023-05-17T07:51:22.481Z,38.05
2023-05-17T07:52:22.472Z,39.39
2023-05-17T07:53:22.237Z,40.34
2023-05-17T07:54:22.266Z,41.63
2023-05-17T07:55:22.254Z,39.63
2023-05-17T07:56:22.266Z,40.37
2023-05-17T07:57:22.217Z,42.35
2023-05-17T07:58:22.238Z,43.08
2023-05-17T07:59:22.200Z,44.21
2023-05-17T08:00:22.227Z,44.82
2023-05-17T08:01:22.208Z,44.62
2023-05-17T08:02:22.248Z,44.60
2023-05-17T08:03:22.186Z,43.87
2023-05-17T08:04:22.179Z,43.85
2023-05-17T08:05:22.128Z,43.77
2023-05-17T08:06:22.296Z,43.46
2023-05-17T08:07:22.112Z,43.38
2023-05-17T08:08:22.247Z,44.13
2023-05-17T08:09:22.250Z,44.46
2023-05-17T08:10:22.095Z,45.17
2023-05-17T08:11:22.105Z,44.15
2023-05-17T08:12:22.180Z,43.65
2023-05-17T08:13:22.081Z,44.15
2023-05-17T08:14:22.051Z,44.27
2023-05-17T08:15:22.054Z,44.10
2023-05-17T08:16:22.042Z,43.83
2023-05-17T08:17:22.110Z,41.46
2023-05-17T08:18:22.102Z,42.60
2023-05-17T08:19:22.184Z,42.84
2023-05-17T08:20:21.986Z,43.37
2023-05-17T08:21:21.972Z,41.77
2023-05-17T08:22:21.986Z,42.07
2023-05-17T08:23:21.948Z,41.56
2023-05-17T08:24:21.964Z,40.96
2023-05-17T08:25:22.586Z,38.53
2023-05-17T08:26:21.916Z,36.35
2023-05-17T08:27:21.900Z,35.38
2023-05-17T08:28:21.903Z,32.62
2023-05-17T08:29:21.884Z,32.12
2023-05-17T08:31:21.855Z,33.28
2023-05-17T08:32:21.940Z,34.12
2023-05-17T08:33:21.944Z,35.23
2023-05-17T08:34:22.016Z,33.31
2023-05-17T08:35:21.825Z,32.47
2023-05-17T08:36:21.798Z,33.07
2023-05-17T08:37:21.869Z,33.00
2023-05-17T08:38:21.839Z,35.08
2023-05-17T08:39:21.803Z,35.70
2023-05-17T08:40:21.899Z,34.22
2023-05-17T08:41:21.764Z,36.33
2023-05-17T08:42:21.788Z,36.67
2023-05-17T08:43:21.751Z,36.77
2023-05-17T08:44:21.830Z,36.99
2023-05-17T08:45:21.720Z,37.92
2023-05-17T08:46:21.875Z,38.02
2023-05-17T08:47:21.703Z,37.62
2023-05-17T08:48:21.772Z,36.02
2023-05-17T08:49:21.788Z,35.50
2023-05-17T08:50:21.746Z,36.32
2023-05-17T08:51:21.677Z,36.64
2023-05-17T08:52:21.685Z,36.67
2023-05-17T08:53:21.689Z,37.31
2023-05-17T08:54:21.650Z,37.37
2023-05-17T08:55:21.607Z,38.70
2023-05-17T08:56:21.642Z,38.61
2023-05-17T08:57:21.610Z,39.83
2023-05-17T08:58:21.609Z,39.83
2023-05-17T08:59:21.809Z,41.44
2023-05-17T09:00:21.682Z,41.64
2023-05-17T09:01:22.291Z,42.47
2023-05-17T09:02:21.638Z,41.56
2023-05-17T09:03:21.610Z,42.19
2023-05-17T09:04:21.600Z,42.19
2023-05-17T09:05:21.631Z,41.91
2023-05-17T09:06:21.715Z,42.35
2023-05-17T09:07:21.688Z,42.15
2023-05-17T09:08:21.528Z,43.18
2023-05-17T09:09:21.461Z,42.17
2023-05-17T09:10:21.661Z,43.69
2023-05-17T09:11:21.591Z,44.22
2023-05-17T09:12:23.395Z,44.22
2023-05-17T09:13:21.416Z,42.76
2023-05-17T09:14:21.404Z,43.98
2023-05-17T09:15:21.541Z,43.37
2023-05-17T09:16:21.449Z,42.94
2023-05-17T09:17:21.382Z,42.43
2023-05-17T09:18:21.605Z,41.34
2023-05-17T09:19:21.439Z,42.25
2023-05-17T09:20:21.538Z,41.24
2023-05-17T09:21:21.352Z,41.78
2023-05-17T09:22:21.431Z,43.10
2023-05-17T09:23:21.329Z,43.38
2023-05-17T09:24:22.463Z,43.08
2023-05-17T09:25:21.300Z,42.49
2023-05-17T09:26:21.351Z,43.81
2023-05-17T09:27:21.247Z,43.20
2023-05-17T09:28:21.471Z,42.88
2023-05-17T09:29:21.389Z,42.88
2023-05-17T09:30:22.165Z,42.17
2023-05-17T09:31:21.415Z,42.98
2023-05-17T09:32:21.401Z,42.46
2023-05-17T09:33:21.331Z,40.37
2023-05-17T09:34:21.240Z,38.46
2023-05-17T09:35:21.342Z,36.40
2023-05-17T09:36:21.215Z,36.98
2023-05-17T09:37:21.367Z,36.40
2023-05-17T09:39:21.402Z,33.65
2023-05-17T09:40:21.361Z,34.53
2023-05-17T09:41:21.154Z,35.36
2023-05-17T09:42:21.231Z,34.22
2023-05-17T09:43:21.167Z,33.62
2023-05-17T09:44:21.333Z,35.95
2023-05-17T09:45:21.160Z,33.86
2023-05-17T09:46:21.147Z,33.59
2023-05-17T09:47:21.177Z,35.13
2023-05-17T09:48:21.329Z,36.25
2023-05-17T09:49:21.120Z,36.17
2023-05-17T09:50:23.177Z,36.69
2023-05-17T09:51:21.206Z,37.21
2023-05-17T09:52:21.134Z,36.62
2023-05-17T09:53:21.146Z,36.27
2023-05-17T09:54:21.108Z,36.07
2023-05-17T09:55:21.187Z,36.77
2023-05-17T09:56:21.104Z,37.09
2023-05-17T09:57:21.097Z,36.89
2023-05-17T09:58:20.945Z,37.02
2023-05-17T09:59:21.056Z,35.77
2023-05-17T10:00:21.041Z,36.99
2023-05-17T10:01:20.988Z,35.88
2023-05-17T10:02:21.046Z,36.30
2023-05-17T10:03:21.053Z,36.64
2023-05-17T10:04:20.897Z,37.37
2023-05-17T10:05:21.116Z,37.48
2023-05-17T10:07:20.875Z,39.44
2023-05-17T10:08:20.842Z,39.66
2023-05-17T10:09:20.924Z,40.15
2023-05-17T10:10:20.869Z,38.28
2023-05-17T10:11:20.856Z,38.09
2023-05-17T10:12:21.063Z,36.40
2023-05-17T10:13:20.789Z,36.71
2023-05-17T10:14:20.813Z,36.32
2023-05-17T10:15:20.781Z,37.35
2023-05-17T10:16:20.844Z,38.26
2023-05-17T10:17:20.950Z,37.20
2023-05-17T10:18:20.868Z,37.20
2023-05-17T10:19:20.998Z,37.89
2023-05-17T10:20:20.918Z,38.29
2023-05-17T10:21:20.759Z,38.28
2023-05-17T10:22:23.660Z,37.66
2023-05-17T10:23:20.727Z,38.51
2023-05-17T10:24:20.712Z,39.02
2023-05-17T10:25:20.859Z,38.92
2023-05-17T10:26:20.680Z,39.91
2023-05-17T10:27:20.897Z,39.54
2023-05-17T10:28:20.673Z,40.45
2023-05-17T10:29:20.831Z,40.33
2023-05-17T10:30:20.626Z,40.53
2023-05-17T10:31:20.627Z,39.42
2023-05-17T10:32:20.713Z,40.13
2023-05-17T10:33:20.742Z,40.13
2023-05-17T10:34:20.692Z,39.32
2023-05-17T10:35:20.747Z,39.12
2023-05-17T10:36:20.642Z,39.32
2023-05-17T10:37:20.566Z,39.32
2023-05-17T10:38:23.969Z,39.42
2023-05-17T10:39:20.703Z,39.22
2023-05-17T10:40:20.563Z,40.15
2023-05-17T10:41:20.688Z,40.15
2023-05-17T10:42:20.573Z,39.84
2023-05-17T10:43:20.550Z,40.35
2023-05-17T10:44:20.570Z,39.08
2023-05-17T10:45:20.509Z,38.40
2023-05-17T10:46:20.518Z,34.92
2023-05-17T10:47:20.468Z,35.48
2023-05-17T10:48:20.603Z,36.91
2023-05-17T10:49:24.530Z,37.23
2023-05-17T10:50:20.602Z,37.65
2023-05-17T10:51:20.479Z,36.79
2023-05-17T10:52:20.412Z,36.62
2023-05-17T10:53:20.428Z,37.85
2023-05-17T10:54:20.358Z,38.48
2023-05-17T10:55:20.407Z,37.66
2023-05-17T10:56:20.368Z,37.59
2023-05-17T10:57:20.432Z,38.63
2023-05-17T10:58:20.365Z,39.14
2023-05-17T10:59:20.474Z,40.13
2023-05-17T11:00:20.362Z,40.52
2023-05-17T11:01:20.298Z,39.10
2023-05-17T11:02:20.326Z,38.98
2023-05-17T11:03:20.285Z,39.99
2023-05-17T11:04:20.283Z,39.39
2023-05-17T11:05:20.326Z,38.78
2023-05-17T11:06:25.265Z,38.88
2023-05-17T11:07:20.250Z,38.66
2023-05-17T11:08:20.349Z,38.95
2023-05-17T11:09:20.286Z,38.04
2023-05-17T11:10:20.315Z,37.43
2023-05-17T11:11:20.405Z,35.73
2023-05-17T11:12:20.235Z,35.95
2023-05-17T11:13:20.331Z,37.77
2023-05-17T11:14:20.159Z,36.55
2023-05-17T11:15:20.191Z,38.07
2023-05-17T11:16:20.185Z,38.70
2023-05-17T11:17:20.196Z,38.19
2023-05-17T11:18:30.442Z,40.23
2023-05-17T11:19:20.312Z,39.73
2023-05-17T11:20:20.431Z,41.55
2023-05-17T11:21:20.265Z,40.44
2023-05-17T11:22:20.124Z,39.24
2023-05-17T11:23:20.092Z,39.42
2023-05-17T11:24:22.172Z,40.25
2023-05-17T11:25:20.082Z,41.46
2023-05-17T11:26:20.179Z,40.44
2023-05-17T11:27:20.205Z,39.93
2023-05-17T11:28:20.136Z,39.22
2023-05-17T11:29:20.131Z,38.70
2023-05-17T11:30:20.154Z,39.91
2023-05-17T11:31:20.184Z,39.70
2023-05-17T11:32:20.106Z,38.09
2023-05-17T11:33:32.508Z,38.29
2023-05-17T11:34:20.240Z,38.39
2023-05-17T11:35:20.095Z,37.79
2023-05-17T11:36:20.235Z,37.59
2023-05-17T11:37:20.060Z,37.79
2023-05-17T11:38:20.031Z,38.29
2023-05-17T11:39:20.112Z,37.40
2023-05-17T11:40:20.039Z,37.82
2023-05-17T11:42:20.102Z,39.04
2023-05-17T11:43:20.030Z,39.44
2023-05-17T11:44:20.111Z,39.15
2023-05-17T11:45:20.045Z,39.17
2023-05-17T11:46:19.957Z,38.65
2023-05-17T11:47:19.952Z,39.06
2023-05-17T11:48:20.095Z,39.06
2023-05-17T11:49:33.847Z,39.24
2023-05-17T11:50:19.800Z,39.44
2023-05-17T11:51:22.616Z,40.73
2023-05-17T11:52:19.882Z,40.94
2023-05-17T11:53:19.879Z,40.73
2023-05-17T11:54:19.864Z,39.62
2023-05-17T11:55:19.765Z,41.24
2023-05-17T11:56:24.060Z,39.42
2023-05-17T11:57:19.715Z,39.62
2023-05-17T11:58:19.717Z,37.70
2023-05-17T11:59:19.805Z,37.38
2023-05-17T12:00:19.688Z,37.89
2023-05-17T12:01:19.681Z,37.68
2023-05-17T12:02:19.653Z,38.39
2023-05-17T12:03:19.680Z,39.22
2023-05-17T12:04:19.774Z,39.91
2023-05-17T12:05:19.700Z,38.80
2023-05-17T12:06:19.690Z,38.70
2023-05-17T12:07:19.627Z,40.21
2023-05-17T12:08:19.635Z,39.62
2023-05-17T12:09:19.604Z,39.46
2023-05-17T12:10:19.705Z,39.56
2023-05-17T12:11:19.680Z,38.85
2023-05-17T12:12:19.608Z,40.49
2023-05-17T12:13:19.629Z,39.58
2023-05-17T12:14:19.530Z,39.90
2023-05-17T12:15:19.616Z,39.70
2023-05-17T12:16:19.492Z,40.09
2023-05-17T12:17:19.549Z,40.80
2023-05-17T12:18:19.594Z,41.00
2023-05-17T12:19:19.625Z,39.60
2023-05-17T12:20:19.809Z,40.43
2023-05-17T12:21:19.460Z,41.83
2023-05-17T12:22:19.716Z,39.29
2023-05-17T12:23:19.478Z,38.70
2023-05-17T12:24:19.494Z,39.82
2023-05-17T12:25:19.444Z,40.02
2023-05-17T12:26:19.428Z,39.72
2023-05-17T12:27:19.400Z,39.51
2023-05-17T12:28:19.369Z,40.22
2023-05-17T12:29:19.394Z,39.62
2023-05-17T12:30:19.390Z,43.98
2023-05-17T12:31:19.401Z,41.52
2023-05-17T12:32:19.558Z,41.14
2023-05-17T12:33:19.400Z,41.05
2023-05-17T12:34:19.473Z,40.43
2023-05-17T12:35:19.358Z,40.94
2023-05-17T12:36:19.446Z,40.43
2023-05-17T12:37:19.440Z,40.45
2023-05-17T12:38:20.189Z,39.86
2023-05-17T12:39:19.369Z,40.56
2023-05-17T12:40:19.277Z,40.67
2023-05-17T12:41:19.317Z,39.94
2023-05-17T12:42:19.250Z,40.04
2023-05-17T12:43:19.380Z,39.51
2023-05-17T12:44:19.488Z,40.63
2023-05-17T12:45:19.312Z,39.62
2023-05-17T12:46:19.398Z,40.22
2023-05-17T12:47:19.204Z,40.12
2023-05-17T12:48:19.507Z,40.83
2023-05-17T12:49:19.323Z,41.52
2023-05-17T12:50:19.427Z,41.74
2023-05-17T12:51:19.169Z,41.32
2023-05-17T12:52:19.192Z,40.91
2023-05-17T12:53:19.261Z,41.83
2023-05-17T12:54:19.127Z,42.94
2023-05-17T12:55:19.129Z,41.12
2023-05-17T12:56:19.095Z,41.52